sensor_id;sensor_type;location;lat;lon;timestamp;temperature;humidity
20422;DHT22;10370;53.102;18.034;2024-03-02T00:00:08;8.20;99.90
20422;DHT22;10370;53.102;18.034;2024-03-02T00:05:34;8.20;99.90
20422;DHT22;10370;53.102;18.034;2024-03-02T00:11:00;8.10;99.90
20422;DHT22;10370;53.102;18.034;2024-03-02T00:16:32;8.10;99.90
20422;DHT22;10370;53.102;18.034;2024-03-02T00:21:55;8.10;99.90
20422;DHT22;10370;53.102;18.034;2024-03-02T00:27:21;8.10;99.90
20422;DHT22;10370;53.102;18.034;2024-03-02T00:32:47;8.00;99.90
20422;DHT22;10370;53.102;18.034;2024-03-02T00:38:29;8.00;99.90
20422;DHT22;10370;53.102;18.034;2024-03-02T00:43:59;8.00;99.90
20422;DHT22;10370;53.102;18.034;2024-03-02T00:49:24;7.90;99.90
20422;DHT22;10370;53.102;18.034;2024-03-02T00:54:48;7.90;99.90
20422;DHT22;10370;53.102;18.034;2024-03-02T01:00:14;7.90;99.90
20422;DHT22;10370;53.102;18.034;2024-03-02T01:05:44;7.80;99.90
20422;DHT22;10370;53.102;18.034;2024-03-02T01:11:06;7.80;99.90
20422;DHT22;10370;53.102;18.034;2024-03-02T01:16:50;7.80;99.90
20422;DHT22;10370;53.102;18.034;2024-03-02T01:22:13;7.70;99.90
20422;DHT22;10370;53.102;18.034;2024-03-02T01:27:35;7.70;99.90
20422;DHT22;10370;53.102;18.034;2024-03-02T01:32:58;7.80;99.90
20422;DHT22;10370;53.102;18.034;2024-03-02T01:38:22;7.80;99.90
20422;DHT22;10370;53.102;18.034;2024-03-02T01:43:54;7.80;99.90
20422;DHT22;10370;53.102;18.034;2024-03-02T01:49:19;7.80;99.90
20422;DHT22;10370;53.102;18.034;2024-03-02T01:54:42;7.70;99.90
20422;DHT22;10370;53.102;18.034;2024-03-02T02:00:06;7.70;99.90
20422;DHT22;10370;53.102;18.034;2024-03-02T02:05:28;7.60;99.90
20422;DHT22;10370;53.102;18.034;2024-03-02T02:10:51;7.50;99.90
20422;DHT22;10370;53.102;18.034;2024-03-02T02:16:23;7.50;99.90
20422;DHT22;10370;53.102;18.034;2024-03-02T02:21:46;7.50;99.90
20422;DHT22;10370;53.102;18.034;2024-03-02T02:27:09;7.40;99.90
20422;DHT22;10370;53.102;18.034;2024-03-02T02:32:32;7.30;99.90
20422;DHT22;10370;53.102;18.034;2024-03-02T02:38:13;7.20;99.90
20422;DHT22;10370;53.102;18.034;2024-03-02T02:49:55;7.10;99.90
20422;DHT22;10370;53.102;18.034;2024-03-02T02:55:31;7.00;99.90
20422;DHT22;10370;53.102;18.034;2024-03-02T03:00:54;7.00;99.90
20422;DHT22;10370;53.102;18.034;2024-03-02T03:06:19;7.00;99.90
20422;DHT22;10370;53.102;18.034;2024-03-02T03:11:41;7.00;99.90
20422;DHT22;10370;53.102;18.034;2024-03-02T03:17:04;7.00;99.90
20422;DHT22;10370;53.102;18.034;2024-03-02T03:22:26;7.00;99.90
20422;DHT22;10370;53.102;18.034;2024-03-02T03:27:49;7.00;99.90
20422;DHT22;10370;53.102;18.034;2024-03-02T03:33:14;6.90;99.90
20422;DHT22;10370;53.102;18.034;2024-03-02T03:38:46;6.90;99.90
20422;DHT22;10370;53.102;18.034;2024-03-02T03:44:22;6.90;99.90
20422;DHT22;10370;53.102;18.034;2024-03-02T03:49:45;6.90;99.90
20422;DHT22;10370;53.102;18.034;2024-03-02T03:55:08;6.90;99.90
20422;DHT22;10370;53.102;18.034;2024-03-02T04:00:31;7.00;99.90
20422;DHT22;10370;53.102;18.034;2024-03-02T04:05:54;7.00;99.90
20422;DHT22;10370;53.102;18.034;2024-03-02T04:11:16;7.00;99.90
20422;DHT22;10370;53.102;18.034;2024-03-02T04:16:39;7.00;99.90
20422;DHT22;10370;53.102;18.034;2024-03-02T04:22:21;7.10;99.90
20422;DHT22;10370;53.102;18.034;2024-03-02T04:27:46;7.10;99.90
20422;DHT22;10370;53.102;18.034;2024-03-02T04:33:09;7.20;99.90
20422;DHT22;10370;53.102;18.034;2024-03-02T04:38:32;7.10;99.90
20422;DHT22;10370;53.102;18.034;2024-03-02T04:43:57;7.20;99.90
20422;DHT22;10370;53.102;18.034;2024-03-02T04:49:20;7.20;99.90
20422;DHT22;10370;53.102;18.034;2024-03-02T04:54:43;7.20;99.90
20422;DHT22;10370;53.102;18.034;2024-03-02T05:00:25;7.20;99.90
20422;DHT22;10370;53.102;18.034;2024-03-02T05:05:50;7.20;99.90
20422;DHT22;10370;53.102;18.034;2024-03-02T05:11:13;7.30;99.90
20422;DHT22;10370;53.102;18.034;2024-03-02T05:16:54;7.20;99.90
20422;DHT22;10370;53.102;18.034;2024-03-02T05:22:17;7.20;99.90
20422;DHT22;10370;53.102;18.034;2024-03-02T05:27:40;7.20;99.90
20422;DHT22;10370;53.102;18.034;2024-03-02T05:33:03;7.30;99.90
20422;DHT22;10370;53.102;18.034;2024-03-02T05:38:25;7.30;99.90
20422;DHT22;10370;53.102;18.034;2024-03-02T05:43:48;7.30;99.90
20422;DHT22;10370;53.102;18.034;2024-03-02T05:49:11;7.30;99.90
20422;DHT22;10370;53.102;18.034;2024-03-02T05:54:34;7.30;99.90
20422;DHT22;10370;53.102;18.034;2024-03-02T05:59:57;7.30;99.90
20422;DHT22;10370;53.102;18.034;2024-03-02T06:05:20;7.40;99.90
20422;DHT22;10370;53.102;18.034;2024-03-02T06:10:43;7.40;99.90
20422;DHT22;10370;53.102;18.034;2024-03-02T06:16:06;7.40;99.90
20422;DHT22;10370;53.102;18.034;2024-03-02T06:21:36;7.40;99.90
20422;DHT22;10370;53.102;18.034;2024-03-02T06:27:08;7.40;99.90
20422;DHT22;10370;53.102;18.034;2024-03-02T06:32:40;7.50;99.90
20422;DHT22;10370;53.102;18.034;2024-03-02T06:38:03;7.50;99.90
20422;DHT22;10370;53.102;18.034;2024-03-02T06:43:32;7.60;99.90
20422;DHT22;10370;53.102;18.034;2024-03-02T06:48:55;7.60;99.90
20422;DHT22;10370;53.102;18.034;2024-03-02T06:54:20;7.60;99.90
20422;DHT22;10370;53.102;18.034;2024-03-02T06:59:46;7.60;99.90
20422;DHT22;10370;53.102;18.034;2024-03-02T07:05:13;7.70;99.90
20422;DHT22;10370;53.102;18.034;2024-03-02T07:10:36;7.70;99.90
20422;DHT22;10370;53.102;18.034;2024-03-02T07:15:58;7.80;99.90
20422;DHT22;10370;53.102;18.034;2024-03-02T07:21:40;7.80;99.90
20422;DHT22;10370;53.102;18.034;2024-03-02T07:27:05;7.90;99.90
20422;DHT22;10370;53.102;18.034;2024-03-02T07:32:28;7.90;99.90
20422;DHT22;10370;53.102;18.034;2024-03-02T07:37:54;7.90;99.90
20422;DHT22;10370;53.102;18.034;2024-03-02T07:43:18;8.00;99.90
20422;DHT22;10370;53.102;18.034;2024-03-02T07:48:42;8.10;99.90
20422;DHT22;10370;53.102;18.034;2024-03-02T07:54:05;8.20;99.90
20422;DHT22;10370;53.102;18.034;2024-03-02T07:59:28;8.40;99.90
20422;DHT22;10370;53.102;18.034;2024-03-02T08:04:51;8.70;99.90
20422;DHT22;10370;53.102;18.034;2024-03-02T08:10:14;9.00;99.90
20422;DHT22;10370;53.102;18.034;2024-03-02T08:15:37;9.30;99.90
20422;DHT22;10370;53.102;18.034;2024-03-02T08:21:00;9.20;99.90
20422;DHT22;10370;53.102;18.034;2024-03-02T08:26:23;9.30;99.90
20422;DHT22;10370;53.102;18.034;2024-03-02T08:31:46;9.40;99.90
20422;DHT22;10370;53.102;18.034;2024-03-02T08:37:09;9.50;99.90
20422;DHT22;10370;53.102;18.034;2024-03-02T08:42:32;9.50;99.90
20422;DHT22;10370;53.102;18.034;2024-03-02T08:47:55;9.80;99.90
20422;DHT22;10370;53.102;18.034;2024-03-02T08:53:18;9.80;99.90
20422;DHT22;10370;53.102;18.034;2024-03-02T08:58:41;9.90;99.90
20422;DHT22;10370;53.102;18.034;2024-03-02T09:04:05;9.90;99.90
20422;DHT22;10370;53.102;18.034;2024-03-02T09:09:28;9.90;99.90
20422;DHT22;10370;53.102;18.034;2024-03-02T09:14:54;10.10;99.90
20422;DHT22;10370;53.102;18.034;2024-03-02T09:20:17;10.20;99.90
20422;DHT22;10370;53.102;18.034;2024-03-02T09:25:40;10.00;99.90
20422;DHT22;10370;53.102;18.034;2024-03-02T09:31:03;10.10;99.90
20422;DHT22;10370;53.102;18.034;2024-03-02T09:36:26;10.10;99.90
20422;DHT22;10370;53.102;18.034;2024-03-02T09:41:52;10.20;99.90
20422;DHT22;10370;53.102;18.034;2024-03-02T09:47:15;10.10;99.90
20422;DHT22;10370;53.102;18.034;2024-03-02T09:52:38;10.20;99.90
20422;DHT22;10370;53.102;18.034;2024-03-02T09:58:01;10.40;99.90
20422;DHT22;10370;53.102;18.034;2024-03-02T10:03:25;10.50;99.90
20422;DHT22;10370;53.102;18.034;2024-03-02T10:08:49;10.50;99.90
20422;DHT22;10370;53.102;18.034;2024-03-02T10:14:13;10.50;99.90
20422;DHT22;10370;53.102;18.034;2024-03-02T10:19:37;10.60;99.90
20422;DHT22;10370;53.102;18.034;2024-03-02T10:25:01;10.60;99.90
20422;DHT22;10370;53.102;18.034;2024-03-02T10:30:26;10.50;99.90
20422;DHT22;10370;53.102;18.034;2024-03-02T10:35:53;10.70;99.90
20422;DHT22;10370;53.102;18.034;2024-03-02T10:41:23;10.90;99.90
20422;DHT22;10370;53.102;18.034;2024-03-02T10:46:47;11.00;99.90
20422;DHT22;10370;53.102;18.034;2024-03-02T10:52:11;10.90;99.90
20422;DHT22;10370;53.102;18.034;2024-03-02T10:58:01;11.00;99.90
20422;DHT22;10370;53.102;18.034;2024-03-02T11:03:27;11.20;99.90
20422;DHT22;10370;53.102;18.034;2024-03-02T11:08:52;11.30;99.90
20422;DHT22;10370;53.102;18.034;2024-03-02T11:14:23;11.50;99.90
20422;DHT22;10370;53.102;18.034;2024-03-02T11:19:48;11.60;99.90
20422;DHT22;10370;53.102;18.034;2024-03-02T11:25:39;11.70;99.90
20422;DHT22;10370;53.102;18.034;2024-03-02T11:31:02;11.80;99.90
20422;DHT22;10370;53.102;18.034;2024-03-02T11:36:25;11.80;99.90
20422;DHT22;10370;53.102;18.034;2024-03-02T11:41:48;11.90;99.90
20422;DHT22;10370;53.102;18.034;2024-03-02T11:47:16;12.10;99.90
20422;DHT22;10370;53.102;18.034;2024-03-02T11:52:42;11.90;99.90
20422;DHT22;10370;53.102;18.034;2024-03-02T11:58:08;11.90;99.90
20422;DHT22;10370;53.102;18.034;2024-03-02T12:03:33;11.90;99.90
20422;DHT22;10370;53.102;18.034;2024-03-02T12:08:58;11.90;99.90
20422;DHT22;10370;53.102;18.034;2024-03-02T12:14:21;11.90;99.90
20422;DHT22;10370;53.102;18.034;2024-03-02T12:19:44;11.80;99.90
20422;DHT22;10370;53.102;18.034;2024-03-02T12:25:08;11.80;99.90
20422;DHT22;10370;53.102;18.034;2024-03-02T12:30:35;11.80;99.90
20422;DHT22;10370;53.102;18.034;2024-03-02T12:36:04;11.90;99.90
20422;DHT22;10370;53.102;18.034;2024-03-02T12:41:27;12.00;99.90
20422;DHT22;10370;53.102;18.034;2024-03-02T12:46:54;12.20;99.90
20422;DHT22;10370;53.102;18.034;2024-03-02T12:52:19;12.40;99.90
20422;DHT22;10370;53.102;18.034;2024-03-02T12:57:44;12.30;99.90
20422;DHT22;10370;53.102;18.034;2024-03-02T13:03:09;12.40;99.90
20422;DHT22;10370;53.102;18.034;2024-03-02T13:08:34;12.50;99.90
20422;DHT22;10370;53.102;18.034;2024-03-02T13:14:00;12.30;99.90
20422;DHT22;10370;53.102;18.034;2024-03-02T13:19:23;12.40;99.90
20422;DHT22;10370;53.102;18.034;2024-03-02T13:24:46;12.20;99.90
20422;DHT22;10370;53.102;18.034;2024-03-02T13:30:09;12.50;99.90
20422;DHT22;10370;53.102;18.034;2024-03-02T13:35:34;12.60;99.90
20422;DHT22;10370;53.102;18.034;2024-03-02T13:40:57;12.50;99.90
20422;DHT22;10370;53.102;18.034;2024-03-02T13:46:20;12.40;99.90
20422;DHT22;10370;53.102;18.034;2024-03-02T13:51:43;12.30;99.90
20422;DHT22;10370;53.102;18.034;2024-03-02T13:57:08;12.30;99.90
20422;DHT22;10370;53.102;18.034;2024-03-02T14:02:32;12.20;99.90
20422;DHT22;10370;53.102;18.034;2024-03-02T14:07:55;12.10;99.90
20422;DHT22;10370;53.102;18.034;2024-03-02T14:13:20;12.10;99.90
20422;DHT22;10370;53.102;18.034;2024-03-02T14:18:45;11.90;99.90
20422;DHT22;10370;53.102;18.034;2024-03-02T14:24:09;11.70;99.90
20422;DHT22;10370;53.102;18.034;2024-03-02T14:29:34;11.70;99.90
20422;DHT22;10370;53.102;18.034;2024-03-02T14:35:00;11.50;99.90
20422;DHT22;10370;53.102;18.034;2024-03-02T14:40:25;11.50;99.90
20422;DHT22;10370;53.102;18.034;2024-03-02T14:45:50;11.40;99.90
20422;DHT22;10370;53.102;18.034;2024-03-02T14:51:15;11.30;99.90
20422;DHT22;10370;53.102;18.034;2024-03-02T14:56:38;11.10;99.90
20422;DHT22;10370;53.102;18.034;2024-03-02T15:02:01;11.10;99.90
20422;DHT22;10370;53.102;18.034;2024-03-02T15:07:24;11.00;99.90
20422;DHT22;10370;53.102;18.034;2024-03-02T15:12:47;11.00;99.90
20422;DHT22;10370;53.102;18.034;2024-03-02T15:18:10;11.00;99.90
20422;DHT22;10370;53.102;18.034;2024-03-02T15:23:34;10.90;99.90
20422;DHT22;10370;53.102;18.034;2024-03-02T15:28:58;10.80;99.90
20422;DHT22;10370;53.102;18.034;2024-03-02T15:34:21;10.70;99.90
20422;DHT22;10370;53.102;18.034;2024-03-02T15:39:45;10.60;99.90
20422;DHT22;10370;53.102;18.034;2024-03-02T15:45:08;10.60;99.90
20422;DHT22;10370;53.102;18.034;2024-03-02T15:50:34;10.50;99.90
20422;DHT22;10370;53.102;18.034;2024-03-02T15:55:59;10.40;99.90
20422;DHT22;10370;53.102;18.034;2024-03-02T16:01:22;10.40;99.90
20422;DHT22;10370;53.102;18.034;2024-03-02T16:06:46;10.30;99.90
20422;DHT22;10370;53.102;18.034;2024-03-02T16:12:10;10.20;99.90
20422;DHT22;10370;53.102;18.034;2024-03-02T16:17:33;10.10;99.90
20422;DHT22;10370;53.102;18.034;2024-03-02T16:22:56;10.10;99.90
20422;DHT22;10370;53.102;18.034;2024-03-02T16:28:20;10.00;99.90
20422;DHT22;10370;53.102;18.034;2024-03-02T16:33:49;9.90;99.90
20422;DHT22;10370;53.102;18.034;2024-03-02T16:39:12;9.90;99.90
20422;DHT22;10370;53.102;18.034;2024-03-02T16:44:35;9.80;99.90
20422;DHT22;10370;53.102;18.034;2024-03-02T16:49:58;9.70;99.90
20422;DHT22;10370;53.102;18.034;2024-03-02T16:55:25;9.70;99.90
20422;DHT22;10370;53.102;18.034;2024-03-02T17:00:48;9.70;99.90
20422;DHT22;10370;53.102;18.034;2024-03-02T17:06:16;9.70;99.90
20422;DHT22;10370;53.102;18.034;2024-03-02T17:11:39;9.60;99.90
20422;DHT22;10370;53.102;18.034;2024-03-02T17:17:05;9.60;99.90
20422;DHT22;10370;53.102;18.034;2024-03-02T17:22:29;9.60;99.90
20422;DHT22;10370;53.102;18.034;2024-03-02T17:28:26;9.60;99.90
20422;DHT22;10370;53.102;18.034;2024-03-02T17:33:54;9.50;99.90
20422;DHT22;10370;53.102;18.034;2024-03-02T17:39:17;9.50;99.90
20422;DHT22;10370;53.102;18.034;2024-03-02T17:44:40;9.40;99.90
20422;DHT22;10370;53.102;18.034;2024-03-02T17:50:03;9.70;99.90
20422;DHT22;10370;53.102;18.034;2024-03-02T17:55:27;9.40;99.90
20422;DHT22;10370;53.102;18.034;2024-03-02T18:00:55;9.40;99.90
20422;DHT22;10370;53.102;18.034;2024-03-02T18:06:19;9.30;99.90
20422;DHT22;10370;53.102;18.034;2024-03-02T18:11:42;9.30;99.90
20422;DHT22;10370;53.102;18.034;2024-03-02T18:17:07;9.30;99.90
20422;DHT22;10370;53.102;18.034;2024-03-02T18:22:31;9.30;99.90
20422;DHT22;10370;53.102;18.034;2024-03-02T18:27:57;9.20;99.90
20422;DHT22;10370;53.102;18.034;2024-03-02T18:33:20;9.20;99.90
20422;DHT22;10370;53.102;18.034;2024-03-02T18:38:49;9.20;99.90
20422;DHT22;10370;53.102;18.034;2024-03-02T18:44:15;9.20;99.90
20422;DHT22;10370;53.102;18.034;2024-03-02T18:49:44;9.20;99.90
20422;DHT22;10370;53.102;18.034;2024-03-02T18:55:08;9.20;99.90
20422;DHT22;10370;53.102;18.034;2024-03-02T19:00:31;9.20;99.90
20422;DHT22;10370;53.102;18.034;2024-03-02T19:05:54;9.20;99.90
20422;DHT22;10370;53.102;18.034;2024-03-02T19:11:20;9.20;99.90
20422;DHT22;10370;53.102;18.034;2024-03-02T19:16:43;9.10;99.90
20422;DHT22;10370;53.102;18.034;2024-03-02T19:22:06;9.10;99.90
20422;DHT22;10370;53.102;18.034;2024-03-02T19:27:32;9.10;99.90
20422;DHT22;10370;53.102;18.034;2024-03-02T19:32:58;9.10;99.90
20422;DHT22;10370;53.102;18.034;2024-03-02T19:38:21;9.20;99.90
20422;DHT22;10370;53.102;18.034;2024-03-02T19:43:50;9.00;99.90
20422;DHT22;10370;53.102;18.034;2024-03-02T19:49:14;9.00;99.90
20422;DHT22;10370;53.102;18.034;2024-03-02T19:54:38;9.00;99.90
20422;DHT22;10370;53.102;18.034;2024-03-02T20:00:02;8.90;99.90
20422;DHT22;10370;53.102;18.034;2024-03-02T20:05:26;8.90;99.90
20422;DHT22;10370;53.102;18.034;2024-03-02T20:10:53;8.90;99.90
20422;DHT22;10370;53.102;18.034;2024-03-02T20:16:17;8.90;99.90
20422;DHT22;10370;53.102;18.034;2024-03-02T20:21:43;8.90;99.90
20422;DHT22;10370;53.102;18.034;2024-03-02T20:27:06;8.80;99.90
20422;DHT22;10370;53.102;18.034;2024-03-02T20:32:32;8.80;99.90
20422;DHT22;10370;53.102;18.034;2024-03-02T20:37:56;8.70;99.90
20422;DHT22;10370;53.102;18.034;2024-03-02T20:43:19;8.70;99.90
20422;DHT22;10370;53.102;18.034;2024-03-02T20:48:46;8.60;99.90
20422;DHT22;10370;53.102;18.034;2024-03-02T20:54:14;8.50;99.90
20422;DHT22;10370;53.102;18.034;2024-03-02T20:59:38;8.50;99.90
20422;DHT22;10370;53.102;18.034;2024-03-02T21:05:05;8.40;99.90
20422;DHT22;10370;53.102;18.034;2024-03-02T21:10:29;8.30;99.90
20422;DHT22;10370;53.102;18.034;2024-03-02T21:15:52;8.30;99.90
20422;DHT22;10370;53.102;18.034;2024-03-02T21:21:16;8.20;99.90
20422;DHT22;10370;53.102;18.034;2024-03-02T21:26:40;8.20;99.90
20422;DHT22;10370;53.102;18.034;2024-03-02T21:32:10;8.10;99.90
20422;DHT22;10370;53.102;18.034;2024-03-02T21:37:59;8.00;99.90
20422;DHT22;10370;53.102;18.034;2024-03-02T21:43:25;7.90;99.90
20422;DHT22;10370;53.102;18.034;2024-03-02T21:48:54;7.80;99.90
20422;DHT22;10370;53.102;18.034;2024-03-02T21:54:18;7.80;99.90
20422;DHT22;10370;53.102;18.034;2024-03-02T22:05:38;7.80;99.90
20422;DHT22;10370;53.102;18.034;2024-03-02T22:11:04;7.80;99.90
20422;DHT22;10370;53.102;18.034;2024-03-02T22:16:27;7.70;99.90
20422;DHT22;10370;53.102;18.034;2024-03-02T22:21:56;7.70;99.90
20422;DHT22;10370;53.102;18.034;2024-03-02T22:27:18;7.70;99.90
20422;DHT22;10370;53.102;18.034;2024-03-02T22:32:41;7.70;99.90
20422;DHT22;10370;53.102;18.034;2024-03-02T22:38:04;7.70;99.90
20422;DHT22;10370;53.102;18.034;2024-03-02T22:43:27;7.60;99.90
20422;DHT22;10370;53.102;18.034;2024-03-02T22:48:50;7.50;99.90
20422;DHT22;10370;53.102;18.034;2024-03-02T22:54:16;7.50;99.90
20422;DHT22;10370;53.102;18.034;2024-03-02T22:59:39;7.40;99.90
20422;DHT22;10370;53.102;18.034;2024-03-02T23:05:02;7.40;99.90
20422;DHT22;10370;53.102;18.034;2024-03-02T23:10:26;7.30;99.90
20422;DHT22;10370;53.102;18.034;2024-03-02T23:15:56;7.20;99.90
20422;DHT22;10370;53.102;18.034;2024-03-02T23:21:44;7.20;99.90
20422;DHT22;10370;53.102;18.034;2024-03-02T23:27:07;7.10;99.90
20422;DHT22;10370;53.102;18.034;2024-03-02T23:32:30;7.10;99.90
20422;DHT22;10370;53.102;18.034;2024-03-02T23:37:56;7.10;99.90
20422;DHT22;10370;53.102;18.034;2024-03-02T23:43:21;7.10;99.90
20422;DHT22;10370;53.102;18.034;2024-03-02T23:49:08;7.00;99.90
20422;DHT22;10370;53.102;18.034;2024-03-02T23:54:31;7.00;99.90
20422;DHT22;10370;53.102;18.034;2024-03-02T23:59:54;7.10;99.90
